Time;durP1;ratioP1;P1;durP2;ratioP2;P2;SDS_P1;SDS_P2;PMS_P1;PMS_P2;Temp;Humidity;BMP_temperature;BMP_pressure;BME280_temperature;BME280_humidity;BME280_pressure;Samples;Min_cycle;Max_cycle;Signal;HPM_P1;HPM_P2
2023/05/09 00:03:58;;;;;;;2.93;2.03;;;10.00;68.70;;;8.48;56.28;100949.75;10444346;27;98534;-84
2023/05/09 00:09:01;;;;;;;4.37;2.23;;;10.00;68.90;;;8.49;56.42;100958.53;10389674;27;96557;-84
2023/05/09 00:14:05;;;;;;;3.53;2.30;;;10.00;69.00;;;8.44;56.33;100958.09;10427144;27;98195;-84
2023/05/09 00:19:08;;;;;;;2.23;1.70;;;9.90;69.20;;;8.40;56.81;100948.75;10415029;27;96441;-84
2023/05/09 00:24:11;;;;;;;3.90;1.97;;;9.90;69.30;;;8.37;56.77;100951.66;10452695;27;96582;-84
2023/05/09 00:29:14;;;;;;;4.53;1.90;;;9.80;69.50;;;8.29;56.88;100947.00;10442390;27;96711;-84
2023/05/09 00:34:18;;;;;;;3.47;2.00;;;9.80;69.40;;;8.21;57.40;100937.06;10424809;27;98212;-84
2023/05/09 00:39:21;;;;;;;4.37;1.90;;;9.60;69.60;;;8.16;57.28;100941.97;10444229;27;96597;-84
2023/05/09 00:44:25;;;;;;;3.30;1.70;;;9.60;69.80;;;8.10;57.84;100921.31;10401607;27;96911;-84
2023/05/09 00:49:28;;;;;;;3.10;1.97;;;9.60;70.20;;;8.05;58.06;100939.41;10407767;27;97559;-84
2023/05/09 00:54:31;;;;;;;3.80;2.53;;;9.50;70.40;;;7.98;58.27;100938.28;10459832;27;96541;-84
2023/05/09 00:59:34;;;;;;;4.30;2.30;;;9.40;70.70;;;7.93;58.38;100933.38;10398477;27;96592;-85
2023/05/09 01:04:38;;;;;;;3.37;1.90;;;9.30;70.80;;;7.85;58.96;100942.91;10372332;27;98160;-85
2023/05/09 01:10:08;;;;;;;3.20;2.13;;;9.30;71.20;;;7.67;59.23;100932.94;10440384;27;97608;-84
2023/05/09 01:15:22;;;;;;;4.30;2.23;;;9.20;71.40;;;7.62;59.66;100936.97;10369552;27;96562;-84
2023/05/09 01:20:44;;;;;;;5.20;2.57;;;9.10;71.80;;;7.47;60.18;100939.09;10390966;28;97265;-84
2023/05/09 01:26:20;;;;;;;6.70;2.60;;;8.90;72.40;;;7.37;60.91;100938.19;10411412;27;97263;-84
2023/05/09 01:31:25;;;;;;;4.80;3.20;;;8.80;72.40;;;7.30;61.07;100934.41;10366912;28;96614;-84
2023/05/09 01:36:32;;;;;;;4.17;2.23;;;8.70;72.80;;;7.22;61.20;100929.75;10352354;27;96557;-85
2023/05/09 01:41:37;;;;;;;3.67;2.23;;;8.70;73.10;;;7.18;61.53;100926.50;10363313;27;97114;-84
2023/05/09 01:46:41;;;;;;;4.27;2.87;;;8.60;73.40;;;7.10;62.17;100922.84;10361292;27;96510;-84
2023/05/09 01:51:47;;;;;;;5.37;2.70;;;8.60;73.80;;;7.03;62.49;100916.41;10358523;27;96647;-84
2023/05/09 01:56:50;;;;;;;4.97;3.47;;;8.50;74.10;;;6.90;63.16;100920.06;10380158;27;96917;-84
2023/05/09 02:01:55;;;;;;;3.20;1.97;;;8.40;74.60;;;6.84;63.21;100919.72;10375355;27;98319;-84
2023/05/09 02:06:59;;;;;;;5.03;2.90;;;8.30;74.90;;;6.77;63.67;100922.00;10450984;27;97330;-84
2023/05/09 02:12:05;;;;;;;6.23;2.73;;;8.20;75.50;;;6.72;64.05;100913.66;10418147;27;96596;-84
2023/05/09 02:17:09;;;;;;;4.23;2.53;;;8.20;75.60;;;6.67;64.28;100911.38;10407069;27;96733;-84
2023/05/09 02:22:13;;;;;;;6.30;3.27;;;8.10;75.80;;;6.60;64.74;100904.09;10451919;27;97176;-84
2023/05/09 02:27:17;;;;;;;3.70;2.43;;;8.10;76.40;;;6.56;64.88;100910.56;10450580;27;96516;-84
2023/05/09 02:32:26;;;;;;;4.80;3.20;;;8.00;76.60;;;6.49;64.99;100907.59;10435411;27;96994;-84
2023/05/09 02:37:29;;;;;;;6.00;3.57;;;7.90;76.90;;;6.42;65.34;100904.63;10396159;28;96621;-84
2023/05/09 02:42:33;;;;;;;5.23;3.23;;;7.90;77.20;;;6.41;65.65;100904.72;10374753;27;97876;-84
2023/05/09 02:47:37;;;;;;;7.77;3.30;;;7.90;77.40;;;6.38;65.66;100908.44;10432166;27;97364;-84
2023/05/09 02:52:40;;;;;;;6.00;3.03;;;7.80;77.90;;;6.39;65.84;100899.56;10393786;27;96584;-84
2023/05/09 02:57:43;;;;;;;5.40;2.70;;;7.90;77.80;;;6.37;65.99;100898.03;10423524;27;98396;-84
2023/05/09 03:02:46;;;;;;;6.23;3.30;;;7.80;77.90;;;6.30;66.19;100894.22;10426126;27;96869;-84
2023/05/09 03:07:50;;;;;;;10.03;2.90;;;7.80;78.20;;;6.29;66.53;100897.78;10398882;27;97967;-85
2023/05/09 03:12:53;;;;;;;9.77;4.30;;;7.80;78.50;;;6.27;66.85;100903.19;10418243;27;96633;-85
2023/05/09 03:17:56;;;;;;;5.60;2.70;;;7.70;78.80;;;6.22;67.04;100897.44;10389561;27;96685;-85
2023/05/09 03:22:59;;;;;;;4.97;2.77;;;7.70;79.00;;;6.21;67.14;100897.56;10416270;27;96540;-84
2023/05/09 03:28:03;;;;;;;6.73;3.40;;;7.70;79.20;;;6.20;67.27;100891.47;10435418;27;97967;-85
2023/05/09 03:33:07;;;;;;;5.17;3.03;;;7.70;79.50;;;6.20;67.21;100896.72;10420520;27;98009;-85
2023/05/09 03:38:10;;;;;;;6.03;3.13;;;7.70;79.70;;;6.25;67.77;100904.28;10422636;27;96598;-85
2023/05/09 03:43:12;;;;;;;7.80;4.13;;;7.70;80.10;;;6.26;67.84;100905.97;10435801;27;98419;-85
2023/05/09 03:48:16;;;;;;;6.43;3.60;;;7.70;80.40;;;6.36;67.75;100902.47;10398249;27;96655;-84
2023/05/09 03:53:19;;;;;;;5.97;3.33;;;7.80;80.50;;;6.49;67.78;100906.75;10457941;27;96548;-85
2023/05/09 03:58:22;;;;;;;4.70;2.83;;;7.90;80.50;;;6.60;67.36;100906.72;10438066;27;96568;-85
2023/05/09 04:03:25;;;;;;;5.87;3.40;;;8.10;80.90;;;6.75;67.05;100912.56;10445301;27;96647;-85
2023/05/09 04:08:28;;;;;;;4.47;3.13;;;8.10;80.70;;;6.90;66.93;100903.38;10420060;27;96590;-85
2023/05/09 04:13:33;;;;;;;6.43;3.50;;;8.30;80.70;;;7.09;66.30;100902.69;10441045;27;97493;-85
2023/05/09 04:18:40;;;;;;;5.67;2.50;;;8.50;80.50;;;7.29;65.81;100903.63;10381591;27;96704;-85
2023/05/09 04:23:43;;;;;;;7.23;2.93;;;8.70;80.50;;;7.50;65.52;100918.53;10387682;28;97282;-85
2023/05/09 04:28:47;;;;;;;6.63;3.30;;;8.80;80.20;;;7.68;65.04;100907.34;10438788;27;96517;-85
2023/05/09 04:33:50;;;;;;;4.20;2.80;;;9.00;80.20;;;7.87;64.18;100909.25;10391621;27;98260;-85
2023/05/09 04:38:53;;;;;;;4.93;3.00;;;9.20;79.90;;;8.05;62.73;100910.28;10422643;27;96651;-86
2023/05/09 04:43:56;;;;;;;9.07;3.17;;;9.40;79.10;;;8.26;61.61;100903.09;10436778;27;96540;-85
2023/05/09 04:48:59;;;;;;;4.30;2.60;;;9.60;78.60;;;8.46;60.74;100919.91;10406750;27;96519;-86
2023/05/09 04:54:02;;;;;;;4.60;2.77;;;9.80;77.90;;;8.66;60.69;100915.47;10405196;27;98278;-86
2023/05/09 04:59:05;;;;;;;4.27;2.87;;;10.00;77.80;;;8.83;60.43;100917.44;10404029;27;96544;-85
2023/05/09 05:04:09;;;;;;;3.70;2.60;;;10.20;77.60;;;8.99;59.16;100921.31;10378820;27;98402;-84
2023/05/09 05:09:12;;;;;;;5.27;2.60;;;10.40;76.70;;;9.19;59.30;100907.09;10397233;27;96737;-85
2023/05/09 05:14:15;;;;;;;5.87;2.77;;;10.50;76.80;;;9.24;57.55;100910.16;10393079;27;96618;-85
2023/05/09 05:19:18;;;;;;;4.00;2.50;;;10.70;75.30;;;9.41;58.31;100913.03;10403124;27;97212;-85
2023/05/09 05:24:21;;;;;;;4.07;2.90;;;10.70;75.50;;;9.49;57.84;100916.69;10380345;28;96489;-85
2023/05/09 05:29:25;;;;;;;3.97;2.23;;;10.90;75.10;;;9.88;59.30;100903.25;10415886;27;96795;-85
2023/05/09 05:34:28;;;;;;;4.07;2.70;;;11.00;75.30;;;10.65;54.51;100902.03;10369613;27;98368;-85
2023/05/09 05:39:31;;;;;;;3.73;2.60;;;11.30;74.70;;;10.55;53.87;100903.91;10384593;28;96578;-84
2023/05/09 05:44:34;;;;;;;4.07;2.17;;;11.40;74.00;;;10.43;54.36;100896.19;10415730;27;96674;-84
2023/05/09 05:49:38;;;;;;;4.33;2.60;;;11.60;73.40;;;10.45;54.83;100896.03;10372610;27;96881;-84
2023/05/09 05:54:41;;;;;;;5.20;2.47;;;11.70;73.70;;;10.49;54.41;100899.19;10366961;28;96416;-84
2023/05/09 05:59:47;;;;;;;6.93;2.90;;;11.80;72.80;;;10.49;54.74;100896.53;10388317;27;97175;-84
2023/05/09 06:04:50;;;;;;;4.10;2.30;;;11.90;72.70;;;10.55;54.55;100906.56;10421772;27;96785;-84
2023/05/09 06:09:55;;;;;;;3.87;2.30;;;12.00;72.30;;;10.63;54.56;100898.69;10456095;27;96839;-84
2023/05/09 06:14:59;;;;;;;5.87;2.27;;;12.00;72.10;;;10.71;54.02;100896.09;10405356;27;98465;-84
2023/05/09 06:20:04;;;;;;;4.57;2.13;;;12.20;72.00;;;10.75;54.54;100904.63;10448883;27;98570;-85
2023/05/09 06:25:08;;;;;;;3.43;2.20;;;12.20;71.70;;;11.02;54.26;100901.03;10438750;27;96739;-84
2023/05/09 06:30:13;;;;;;;6.20;2.47;;;12.40;72.10;;;11.15;54.10;100898.78;10444354;27;96658;-84
2023/05/09 06:35:29;;;;;;;3.50;2.33;;;12.60;71.60;;;11.34;53.54;100901.28;10434197;27;96632;-85
2023/05/09 06:40:32;;;;;;;3.97;2.20;;;12.80;71.60;;;11.50;52.99;100897.88;10417749;27;96556;-84
2023/05/09 06:45:35;;;;;;;3.40;2.10;;;12.90;71.20;;;11.74;53.14;100890.03;10413994;27;97443;-84
2023/05/09 06:50:39;;;;;;;5.80;2.27;;;13.10;71.10;;;11.91;52.61;100891.00;10437524;27;96767;-84
2023/05/09 06:55:42;;;;;;;3.57;2.00;;;13.30;70.50;;;12.07;52.21;100884.06;10391304;27;96655;-84
2023/05/09 07:00:46;;;;;;;4.87;2.37;;;13.50;70.00;;;12.29;51.24;100878.13;10412300;27;96782;-85
2023/05/09 07:05:51;;;;;;;4.07;1.87;;;13.70;69.70;;;12.38;51.67;100869.19;10432963;27;96583;-84
2023/05/09 07:10:54;;;;;;;3.37;1.97;;;13.80;69.50;;;12.60;50.95;100875.72;10415374;27;96738;-85
2023/05/09 07:15:57;;;;;;;6.33;1.80;;;14.00;69.00;;;12.70;51.32;100864.88;10422022;27;96826;-84
2023/05/09 07:21:00;;;;;;;2.67;1.87;;;14.10;68.80;;;12.65;51.46;100856.53;10395885;27;97446;-85
2023/05/09 07:26:03;;;;;;;2.63;1.63;;;14.10;68.70;;;12.89;50.77;100851.22;10425964;27;98088;-84
2023/05/09 07:31:08;;;;;;;4.93;1.50;;;14.30;68.70;;;13.09;49.44;100849.06;10450992;27;96650;-85
2023/05/09 07:36:12;;;;;;;3.27;1.70;;;14.50;67.60;;;13.44;49.23;100837.19;10428687;27;96510;-84
2023/05/09 07:41:15;;;;;;;2.27;1.13;;;14.80;67.30;;;13.60;47.92;100831.78;10443626;27;97563;-85
2023/05/09 07:46:18;;;;;;;3.03;1.10;;;15.00;66.10;;;13.79;48.60;100824.38;10462547;27;98033;-84
2023/05/09 07:51:21;;;;;;;1.30;0.80;;;15.10;66.20;;;13.94;47.56;100822.63;10432778;27;96643;-85
2023/05/09 07:56:25;;;;;;;2.63;0.90;;;15.30;65.30;;;14.07;46.23;100827.41;10422386;27;97054;-84
2023/05/09 08:01:28;;;;;;;6.97;1.10;;;15.40;64.10;;;14.23;46.79;100813.97;10415054;27;99162;-85
2023/05/09 08:06:32;;;;;;;2.38;1.10;;;15.50;64.20;;;14.45;46.41;100810.47;10402973;27;96669;-84
2023/05/09 08:11:35;;;;;;;5.00;0.95;;;15.70;64.10;;;14.51;46.40;100798.25;10391763;28;98119;-85
2023/05/09 08:16:38;;;;;;;2.45;1.00;;;15.90;63.90;;;14.57;44.91;100794.84;10430472;27;97743;-84
2023/05/09 08:21:41;;;;;;;1.70;1.00;;;15.90;62.50;;;14.55;45.86;100804.91;10404856;28;96511;-85
2023/05/09 08:26:44;;;;;;;2.72;1.30;;;15.90;63.20;;;14.79;46.05;100795.84;10416599;27;96689;-85
2023/05/09 08:31:47;;;;;;;0.95;0.70;;;16.10;63.60;;;15.07;45.77;100790.75;10446302;27;96634;-85
2023/05/09 08:36:50;;;;;;;1.15;0.80;;;16.40;63.70;;;15.21;45.49;100784.56;10403862;27;96473;-84
2023/05/09 08:42:00;;;;;;;1.75;0.90;;;16.60;62.80;;;15.42;44.09;100785.69;10388391;28;96588;-84
2023/05/09 08:47:04;;;;;;;3.73;1.00;;;16.90;62.00;;;15.81;44.49;100777.34;10400459;27;97035;-85
2023/05/09 08:52:07;;;;;;;2.28;0.75;;;17.10;61.90;;;16.03;43.99;100764.84;10427565;27;96708;-85
2023/05/09 08:57:11;;;;;;;3.17;0.65;;;17.30;61.70;;;16.06;42.06;100769.78;10419365;27;96483;-85
2023/05/09 09:02:14;;;;;;;0.95;0.57;;;17.40;60.00;;;16.11;41.28;100764.69;10390645;28;96603;-85
2023/05/09 09:07:18;;;;;;;1.27;0.80;;;17.50;58.90;;;16.00;41.21;100762.50;10387296;28;96555;-85
2023/05/09 09:12:23;;;;;;;3.15;0.80;;;17.50;58.10;;;16.18;41.14;100757.56;10428510;27;96422;-85
2023/05/09 09:17:29;;;;;;;3.70;0.70;;;17.60;58.50;;;16.36;40.36;100742.88;10393626;28;98735;-85
2023/05/09 09:22:33;;;;;;;1.48;0.70;;;17.70;57.20;;;16.64;40.53;100742.91;10393793;27;98492;-85
2023/05/09 09:27:36;;;;;;;1.17;0.60;;;17.80;57.50;;;16.80;40.85;100743.50;10419726;28;96531;-85
2023/05/09 09:32:40;;;;;;;1.52;0.65;;;18.00;57.80;;;16.91;39.54;100750.16;10402528;28;96444;-84
2023/05/09 09:37:43;;;;;;;2.20;0.80;;;18.20;56.90;;;16.88;39.51;100739.00;10374449;28;97473;-85
2023/05/09 09:42:47;;;;;;;1.17;0.57;;;18.30;56.30;;;16.87;40.22;100734.66;10403254;28;96544;-85
2023/05/09 09:47:50;;;;;;;1.58;0.73;;;18.20;56.80;;;16.66;38.62;100741.69;10385537;27;96586;-85
2023/05/09 09:52:55;;;;;;;1.38;0.70;;;18.20;55.70;;;16.75;39.18;100745.94;10355979;28;96597;-85
2023/05/09 09:57:58;;;;;;;1.08;0.70;;;18.10;56.10;;;16.66;38.07;100743.53;10389590;27;97423;-85
2023/05/09 10:03:01;;;;;;;4.35;0.95;;;18.10;54.90;;;16.66;38.44;100725.59;10401641;28;96711;-85
2023/05/09 10:08:08;;;;;;;2.95;0.90;;;18.10;55.10;;;16.77;39.40;100711.66;10392255;28;96647;-84
2023/05/09 10:13:11;;;;;;;1.20;0.73;;;18.20;55.70;;;16.51;39.86;100717.63;10399798;28;96577;-85
2023/05/09 10:18:18;;;;;;;1.60;0.88;;;18.00;55.70;;;16.92;40.77;100711.56;10396141;28;97426;-85
2023/05/09 10:23:24;;;;;;;0.82;0.45;;;18.20;57.10;;;17.21;38.71;100709.66;10405979;27;96459;-85
2023/05/09 10:28:32;;;;;;;1.75;0.60;;;18.60;55.40;;;17.27;37.78;100709.72;10419388;27;96559;-85
2023/05/09 10:33:48;;;;;;;0.88;0.65;;;18.70;54.30;;;17.37;39.33;100702.09;10365130;28;96681;-85
2023/05/09 10:38:55;;;;;;;5.05;0.85;;;18.70;55.10;;;17.34;36.95;100699.81;10391420;27;96575;-86
2023/05/09 10:43:58;;;;;;;3.58;0.77;;;18.80;53.70;;;17.23;37.20;100699.56;10410090;28;97206;-84
2023/05/09 10:49:02;;;;;;;3.05;0.63;;;18.70;53.70;;;17.36;38.24;100697.75;10401260;28;96510;-85
2023/05/09 10:54:15;;;;;;;1.63;0.60;;;18.70;54.40;;;18.01;37.56;100686.63;10398739;28;96716;-85
2023/05/09 10:59:39;;;;;;;1.95;0.60;;;19.30;54.30;;;17.96;35.02;100699.84;10398618;28;96626;-84
2023/05/09 11:04:44;;;;;;;3.35;0.50;;;19.50;51.20;;;17.68;35.74;100698.06;10389097;27;96445;-85
2023/05/09 11:10:11;;;;;;;0.70;0.47;;;19.30;51.50;;;17.77;36.17;100680.78;10372909;28;96663;-85
2023/05/09 11:15:17;;;;;;;2.03;0.50;;;19.20;51.90;;;18.15;34.86;100677.50;10363855;28;96850;-84
2023/05/09 11:20:28;;;;;;;1.58;0.68;;;19.60;51.90;;;18.26;35.01;100668.00;10367292;28;97860;-85
2023/05/09 11:25:31;;;;;;;;;;;19.70;51.40;;;18.41;35.76;100668.63;10383381;28;96662;-85
2023/05/09 11:30:42;;;;;;;3.53;0.75;;;19.80;51.70;;;18.50;34.68;100659.31;10403711;27;97079;-85
2023/05/09 11:35:46;;;;;;;1.38;0.55;;;20.00;50.90;;;18.51;34.12;100657.44;10432086;27;96577;-85
2023/05/09 11:40:52;;;;;;;1.13;0.50;;;20.10;50.10;;;18.57;34.39;100648.53;10400564;28;96681;-85
2023/05/09 11:45:56;;;;;;;7.63;0.85;;;20.10;50.00;;;18.95;34.03;100652.22;10406472;27;96821;-86
2023/05/09 11:51:01;;;;;;;2.53;0.70;;;20.40;50.20;;;18.80;33.78;100654.31;10410189;28;96519;-85
2023/05/09 11:56:05;;;;;;;0.98;0.60;;;20.30;49.80;;;18.36;34.49;100650.44;10411706;27;96668;-85
2023/05/09 12:01:10;;;;;;;1.88;0.70;;;20.00;50.10;;;18.49;34.06;100641.50;10423195;27;96869;-85
2023/05/09 12:06:18;;;;;;;2.78;0.70;;;20.00;50.50;;;18.68;31.83;100635.28;10407499;27;96521;-87
2023/05/09 12:11:23;;;;;;;0.70;0.50;;;20.20;48.50;;;18.35;33.59;100624.56;10445433;27;96629;-85
2023/05/09 12:16:26;;;;;;;1.40;0.70;;;20.00;49.10;;;18.25;34.40;100618.75;10395783;27;96780;-85
2023/05/09 12:21:30;;;;;;;1.73;0.60;;;19.80;50.10;;;17.85;34.70;100618.75;10397086;27;96609;-85
2023/05/09 12:26:33;;;;;;;1.38;1.00;;;19.50;50.00;;;17.93;35.35;100609.63;10424579;27;97483;-84
2023/05/09 12:31:36;;;;;;;1.77;1.00;;;19.60;50.50;;;17.71;35.39;100600.94;10425535;27;96665;-84
2023/05/09 12:36:39;;;;;;;3.15;1.27;;;19.50;50.30;;;17.78;34.33;100603.66;10434038;27;96557;-84
2023/05/09 12:41:44;;;;;;;1.05;0.70;;;19.50;49.90;;;17.53;34.05;100603.38;10421638;27;96501;-84
2023/05/09 12:47:03;;;;;;;1.45;0.70;;;19.40;48.80;;;17.27;36.72;100604.97;10471840;27;96767;-85
2023/05/09 12:52:19;;;;;;;4.63;0.90;;;19.00;50.80;;;17.26;36.57;100589.84;10407462;27;97022;-89
2023/05/09 12:57:26;;;;;;;1.58;0.80;;;18.80;51.60;;;17.52;36.85;100585.59;10427461;27;96628;-86
2023/05/09 13:02:40;;;;;;;2.78;1.23;;;19.00;52.20;;;18.05;35.83;100575.75;10436252;27;96614;-86
2023/05/09 13:07:47;;;;;;;2.35;0.65;;;19.70;50.80;;;18.37;33.96;100570.53;10424956;27;98111;-84
2023/05/09 13:12:52;;;;;;;2.25;1.00;;;20.10;49.20;;;18.40;34.84;100565.53;10437248;27;98167;-85
2023/05/09 13:17:55;;;;;;;6.07;1.40;;;20.10;50.10;;;18.61;34.73;100556.41;10402509;27;96911;-85
2023/05/09 13:22:58;;;;;;;2.63;1.02;;;20.20;50.30;;;18.92;33.98;100555.69;10451723;27;97508;-86
2023/05/09 13:28:01;;;;;;;8.38;1.75;;;20.50;49.90;;;19.38;33.92;100551.13;10431396;27;96484;-85
2023/05/09 13:33:06;;;;;;;2.58;1.48;;;20.90;49.90;;;19.31;34.13;100544.91;10443730;27;96669;-86
2023/05/09 13:38:29;;;;;;;1.63;0.70;;;20.70;49.80;;;19.09;32.99;100547.94;10449840;27;97069;-85
2023/05/09 13:43:33;;;;;;;2.15;0.93;;;20.60;49.20;;;19.04;34.20;100545.06;10426238;27;96853;-86
2023/05/09 13:48:36;;;;;;;1.30;0.80;;;20.60;49.80;;;19.36;34.47;100527.06;10429985;27;96503;-85
2023/05/09 13:53:39;;;;;;;1.58;0.70;;;20.80;51.10;;;19.37;34.77;100526.03;10451451;27;96639;-85
2023/05/09 13:58:43;;;;;;;1.60;0.95;;;20.90;50.50;;;19.12;35.25;100528.66;10407794;27;97559;-86
2023/05/09 14:03:47;;;;;;;1.80;0.75;;;20.70;50.50;;;18.96;35.43;100513.84;10364143;27;98460;-86
2023/05/09 14:08:52;;;;;;;3.60;0.80;;;20.60;50.70;;;18.88;35.95;100515.94;10369727;27;96613;-85
2023/05/09 14:13:55;;;;;;;2.88;1.02;;;20.50;50.80;;;18.41;35.96;100508.03;10369176;28;96643;-86
2023/05/09 14:18:58;;;;;;;1.63;1.00;;;20.20;51.00;;;18.45;36.36;100511.09;10364522;28;97030;-85
2023/05/09 14:24:01;;;;;;;2.63;0.70;;;20.30;51.10;;;18.43;35.99;100500.56;10343534;28;96550;-86
2023/05/09 14:29:05;;;;;;;1.80;0.70;;;20.20;51.00;;;18.10;35.70;100503.31;10387773;28;98137;-85
2023/05/09 14:34:08;;;;;;;3.35;0.70;;;19.90;50.70;;;17.88;36.97;100507.28;10374306;28;97995;-85
2023/05/09 14:39:11;;;;;;;2.17;0.98;;;19.50;51.40;;;18.05;37.31;100500.47;10364057;28;98468;-85
2023/05/09 14:44:16;;;;;;;1.35;0.93;;;19.70;52.40;;;18.43;36.46;100494.34;10354462;28;97425;-85
2023/05/09 14:49:20;;;;;;;3.88;0.98;;;20.30;51.10;;;18.36;36.39;100491.69;10382017;28;96720;-85
2023/05/09 14:54:23;;;;;;;0.95;0.77;;;20.30;50.80;;;18.14;36.15;100493.81;10415709;28;97306;-85
2023/05/09 14:59:26;;;;;;;2.88;0.70;;;20.00;50.90;;;18.24;36.50;100481.78;10397158;28;96762;-85
2023/05/09 15:04:29;;;;;;;6.68;0.77;;;20.10;51.50;;;18.76;34.45;100472.69;10374339;28;96734;-86
2023/05/09 15:09:33;;;;;;;0.68;0.52;;;20.70;49.80;;;19.11;35.68;100467.75;10416400;27;97682;-85
2023/05/09 15:14:37;;;;;;;1.60;0.70;;;21.10;50.00;;;19.50;34.13;100463.13;10383041;28;96693;-85
2023/05/09 15:19:40;;;;;;;5.30;1.05;;;21.60;49.30;;;19.55;33.43;100452.47;10409129;27;98455;-84
2023/05/09 15:24:44;;;;;;;3.40;0.80;;;21.70;48.20;;;19.13;34.00;100460.28;10395579;28;97656;-84
2023/05/09 15:29:47;;;;;;;2.30;0.88;;;21.10;48.50;;;18.89;34.42;100451.13;10413864;27;96716;-84
2023/05/09 15:34:50;;;;;;;2.35;0.65;;;20.90;49.00;;;19.14;34.50;100447.66;10368792;28;97546;-84
2023/05/09 15:39:54;;;;;;;1.88;0.50;;;21.20;49.00;;;19.26;34.09;100437.81;10409771;28;97386;-84
2023/05/09 15:44:57;;;;;;;1.52;0.65;;;21.40;48.30;;;19.19;34.75;100437.00;10427502;27;96594;-84
2023/05/09 15:50:00;;;;;;;1.70;0.90;;;21.20;48.90;;;19.42;33.09;100439.13;10374410;28;97018;-85
2023/05/09 15:55:04;;;;;;;1.80;1.10;;;21.50;48.20;;;19.43;34.10;100430.84;10369302;28;96645;-85
2023/05/09 16:00:08;;;;;;;9.73;5.90;;;21.40;48.40;;;19.47;34.39;100413.16;10374499;27;96860;-84
2023/05/09 16:05:11;;;;;;;3.72;1.73;;;21.40;48.50;;;19.40;33.34;100414.28;10418355;27;97693;-84
2023/05/09 16:10:15;;;;;;;6.75;3.60;;;21.20;48.20;;;19.19;34.38;100407.38;10422138;27;98130;-84
2023/05/09 16:15:18;;;;;;;10.85;7.90;;;21.00;48.60;;;19.10;34.62;100416.78;10394141;27;96863;-84
2023/05/09 16:20:21;;;;;;;2.20;1.38;;;20.90;48.90;;;18.87;35.16;100422.75;10427061;27;98340;-83
2023/05/09 16:25:25;;;;;;;1.73;0.90;;;20.70;49.00;;;18.40;34.61;100422.94;10422435;27;97609;-83
2023/05/09 16:30:28;;;;;;;3.95;3.33;;;20.30;48.80;;;18.13;35.78;100424.91;10402264;27;97335;-81
2023/05/09 16:35:31;;;;;;;1.52;1.00;;;19.90;49.90;;;18.37;36.50;100414.50;10410566;27;96687;-83
2023/05/09 16:40:34;;;;;;;1.90;0.93;;;20.10;50.60;;;18.58;34.98;100405.28;10408546;27;96612;-84
2023/05/09 16:45:37;;;;;;;1.40;0.80;;;20.40;49.70;;;18.62;35.29;100398.44;10437586;27;96583;-83
2023/05/09 16:50:44;;;;;;;2.30;1.20;;;20.40;49.50;;;18.44;34.91;100391.88;10437400;27;97208;-83
2023/05/09 16:55:48;;;;;;;2.90;1.40;;;20.20;49.30;;;18.18;35.43;100400.09;10394025;27;96617;-83
2023/05/09 17:00:52;;;;;;;1.60;0.80;;;19.80;49.70;;;18.01;36.21;100391.66;10435893;27;97431;-83
2023/05/09 17:05:55;;;;;;;5.40;3.00;;;19.50;50.40;;;17.69;36.15;100392.50;10404605;27;96525;-83
2023/05/09 17:10:58;;;;;;;6.18;3.63;;;19.20;50.70;;;17.36;36.56;100394.22;10421824;27;97431;-83
2023/05/09 17:16:01;;;;;;;2.15;1.50;;;18.90;51.20;;;17.12;37.38;100390.28;10430789;27;96731;-84
2023/05/09 17:21:05;;;;;;;2.25;1.50;;;18.60;51.80;;;17.01;37.93;100398.13;10420046;27;96571;-83
2023/05/09 17:26:08;;;;;;;2.92;1.20;;;18.40;52.10;;;16.86;38.33;100403.69;10410222;27;98130;-83
2023/05/09 17:31:12;;;;;;;2.25;1.50;;;18.30;52.50;;;16.71;38.35;100401.16;10411434;27;96515;-83
2023/05/09 17:36:15;;;;;;;1.60;1.20;;;18.10;52.80;;;16.54;38.89;100400.69;10442949;27;96570;-83
2023/05/09 17:41:18;;;;;;;2.63;1.05;;;17.90;53.10;;;16.38;38.92;100394.88;10416768;27;96997;-83
2023/05/09 17:46:22;;;;;;;2.92;1.15;;;17.70;53.20;;;16.24;39.35;100400.16;10391366;27;96580;-82
2023/05/09 17:51:25;;;;;;;2.60;1.52;;;17.60;53.40;;;16.08;39.32;100400.50;10401801;28;96589;-82
2023/05/09 17:56:28;;;;;;;2.05;1.20;;;17.40;53.60;;;15.98;39.44;100400.03;10406348;27;96674;-83
2023/05/09 18:01:31;;;;;;;4.13;1.75;;;17.30;53.70;;;15.83;39.36;100402.00;10416796;27;96766;-83
2023/05/09 18:06:35;;;;;;;6.53;1.80;;;17.20;53.90;;;15.72;39.98;100406.06;10409903;27;97495;-83
2023/05/09 18:11:41;;;;;;;3.22;1.33;;;17.10;54.20;;;15.61;40.38;100404.72;10426136;27;97852;-84
2023/05/09 18:16:45;;;;;;;4.38;1.20;;;17.00;54.40;;;15.49;40.66;100408.97;10424916;27;96750;-83
2023/05/09 18:21:48;;;;;;;3.28;1.48;;;16.80;54.80;;;15.38;41.38;100417.53;10402103;28;96977;-83
2023/05/09 18:26:51;;;;;;;12.52;2.35;;;16.70;55.20;;;15.27;41.69;100414.34;10394135;27;97339;-83
2023/05/09 18:31:54;;;;;;;9.93;3.53;;;16.60;55.40;;;15.16;41.76;100417.53;10435792;27;96462;-83
2023/05/09 18:36:58;;;;;;;5.80;2.50;;;16.50;55.50;;;15.04;42.26;100427.09;10428388;27;96627;-83
2023/05/09 18:42:01;;;;;;;4.70;1.50;;;16.40;55.90;;;14.83;43.00;100427.13;10394014;27;96667;-83
2023/05/09 18:47:05;;;;;;;2.33;1.38;;;16.20;56.30;;;14.60;43.48;100425.44;10421116;27;96459;-82
2023/05/09 18:52:09;;;;;;;4.22;1.80;;;16.00;56.80;;;14.40;44.18;100433.19;10434106;27;98222;-83
2023/05/09 18:57:13;;;;;;;2.03;1.52;;;15.80;57.30;;;14.20;45.01;100443.59;10391369;27;96716;-83
2023/05/09 19:02:19;;;;;;;4.07;2.22;;;15.50;57.80;;;13.97;45.90;100450.88;10440682;27;97089;-83
2023/05/09 19:07:23;;;;;;;9.65;4.10;;;15.30;58.50;;;13.73;47.04;100451.97;10392615;27;97182;-84
2023/05/09 19:12:27;;;;;;;11.73;4.90;;;15.10;59.30;;;13.49;47.87;100458.38;10398226;27;96713;-83
2023/05/09 19:17:30;;;;;;;10.07;4.90;;;14.80;60.20;;;13.27;49.10;100451.25;10419399;27;96870;-83
2023/05/09 19:22:35;;;;;;;12.97;6.33;;;14.60;60.90;;;13.01;49.62;100446.22;10388988;27;97783;-83
2023/05/09 19:27:38;;;;;;;5.97;2.77;;;14.30;61.70;;;12.81;50.41;100452.00;10417591;27;97394;-83
2023/05/09 19:32:42;;;;;;;5.07;2.67;;;14.10;62.90;;;12.59;51.18;100453.66;10414984;27;96631;-84
2023/05/09 19:37:46;;;;;;;6.20;2.20;;;13.90;63.00;;;12.41;51.67;100445.06;10409478;27;97722;-83
2023/05/09 19:42:49;;;;;;;6.47;2.40;;;13.70;63.60;;;12.25;52.45;100453.13;10398036;27;98620;-83
2023/05/09 19:47:53;;;;;;;3.33;1.70;;;13.50;64.20;;;12.10;52.63;100461.00;10434956;27;97776;-84
2023/05/09 19:52:57;;;;;;;8.90;2.10;;;13.40;64.60;;;11.96;53.62;100456.41;10423871;27;96772;-83
2023/05/09 19:58:00;;;;;;;3.57;1.57;;;13.20;65.00;;;11.82;53.88;100455.28;10407326;27;96577;-83
2023/05/09 20:03:03;;;;;;;4.83;2.50;;;13.10;65.70;;;11.72;54.53;100450.09;10379162;27;96891;-85
2023/05/09 20:08:06;;;;;;;6.17;2.20;;;13.00;65.90;;;11.62;54.76;100451.25;10425401;27;96679;-85
2023/05/09 20:13:09;;;;;;;3.97;2.30;;;12.90;66.50;;;11.48;55.23;100452.78;10387852;28;96908;-83
2023/05/09 20:18:15;;;;;;;4.87;2.20;;;12.80;66.80;;;11.40;55.50;100456.28;10416726;27;96619;-84
2023/05/09 20:23:18;;;;;;;2.90;2.00;;;12.70;67.30;;;11.25;56.06;100447.28;10397710;27;96664;-83
2023/05/09 20:28:21;;;;;;;6.17;2.57;;;12.60;67.80;;;11.15;56.52;100447.44;10388489;27;97320;-83
2023/05/09 20:33:24;;;;;;;5.83;3.53;;;12.40;68.10;;;11.08;57.06;100441.13;10427742;27;96482;-83
2023/05/09 20:38:27;;;;;;;5.40;2.93;;;12.40;68.60;;;11.03;57.05;100437.28;10423521;27;96521;-83
2023/05/09 20:43:30;;;;;;;7.00;3.17;;;12.30;68.90;;;10.94;57.28;100436.47;10400428;28;96641;-84
2023/05/09 20:48:33;;;;;;;4.67;3.03;;;12.30;69.20;;;10.84;57.51;100438.44;10414767;27;97553;-83
2023/05/09 20:53:36;;;;;;;5.17;3.17;;;12.10;69.40;;;10.73;58.19;100436.91;10418607;27;96524;-84
2023/05/09 20:58:39;;;;;;;4.83;2.77;;;12.00;69.80;;;10.66;58.20;100438.56;10417115;28;96685;-83
2023/05/09 21:03:43;;;;;;;4.87;2.20;;;12.00;70.10;;;10.56;59.05;100437.91;10426413;27;96634;-84